createdAt,value
2024-02-08T00:01:55.880Z,79.41
2024-02-08T00:05:01.529Z,79.19
2024-02-08T00:08:07.304Z,79.50
2024-02-08T00:11:12.995Z,79.42
2024-02-08T00:14:19.520Z,79.70
2024-02-08T00:17:24.807Z,79.65
2024-02-08T00:20:30.727Z,80.13
2024-02-08T00:23:36.106Z,80.10
2024-02-08T00:26:41.776Z,80.13
2024-02-08T00:29:47.768Z,79.95
2024-02-08T00:32:54.401Z,80.12
2024-02-08T00:35:59.867Z,80.43
2024-02-08T00:39:07.028Z,80.70
2024-02-08T00:42:12.835Z,80.71
2024-02-08T00:45:18.449Z,80.68
2024-02-08T00:48:24.143Z,80.73
2024-02-08T00:51:32.904Z,80.78
2024-02-08T00:54:38.218Z,80.92
2024-02-08T00:57:44.029Z,81.27
2024-02-08T01:00:50.121Z,81.07
2024-02-08T01:03:37.352Z,81.55
2024-02-08T01:06:42.906Z,81.64
2024-02-08T01:09:49.295Z,81.72
2024-02-08T01:12:55.239Z,81.56
2024-02-08T01:16:00.956Z,81.99
2024-02-08T01:19:06.331Z,81.65
2024-02-08T01:22:13.646Z,81.56
2024-02-08T01:25:19.369Z,81.76
2024-02-08T01:28:08.563Z,81.62
2024-02-08T01:31:14.205Z,81.82
2024-02-08T01:34:19.970Z,81.97
2024-02-08T01:37:25.580Z,81.72
2024-02-08T01:40:31.723Z,81.66
2024-02-08T01:43:37.316Z,81.57
2024-02-08T01:46:43.511Z,81.21
2024-02-08T01:49:51.857Z,81.10
2024-02-08T01:52:57.808Z,80.81
2024-02-08T01:56:04.956Z,80.93
2024-02-08T01:59:11.386Z,80.19
2024-02-08T02:02:21.445Z,80.19
2024-02-08T02:05:27.507Z,80.10
2024-02-08T02:08:39.748Z,79.78
2024-02-08T02:11:58.593Z,79.82
2024-02-08T02:15:04.823Z,78.82
2024-02-08T02:18:12.682Z,79.23
2024-02-08T02:21:19.086Z,79.61
2024-02-08T02:24:25.197Z,79.91
2024-02-08T02:27:32.456Z,80.24
2024-02-08T02:30:38.601Z,80.18
2024-02-08T02:33:44.684Z,80.36
2024-02-08T02:36:50.943Z,80.34
2024-02-08T02:39:57.040Z,80.06
2024-02-08T02:43:02.748Z,79.65
2024-02-08T02:46:08.781Z,80.27
2024-02-08T02:49:14.551Z,80.50
2024-02-08T02:52:20.163Z,80.04
2024-02-08T02:55:26.192Z,79.99
2024-02-08T02:58:31.834Z,79.98
2024-02-08T03:01:37.608Z,79.71
2024-02-08T03:04:44.656Z,80.29
2024-02-08T03:07:50.326Z,80.24
2024-02-08T03:10:59.437Z,80.35
2024-02-08T03:14:05.623Z,80.36
2024-02-08T03:17:11.813Z,80.48
2024-02-08T03:20:19.297Z,79.83
2024-02-08T03:23:25.050Z,80.20
2024-02-08T03:26:30.689Z,80.61
2024-02-08T03:29:36.371Z,80.52
2024-02-08T03:32:42.145Z,80.21
2024-02-08T03:35:50.787Z,79.67
2024-02-08T03:38:56.330Z,80.05
2024-02-08T03:42:02.168Z,80.07
2024-02-08T03:45:08.480Z,80.48
2024-02-08T03:48:15.130Z,80.27
2024-02-08T03:51:20.965Z,79.85
2024-02-08T03:54:26.292Z,79.84
2024-02-08T03:57:31.980Z,79.66
2024-02-08T04:00:38.118Z,79.02
2024-02-08T04:03:42.432Z,78.86
2024-02-08T04:06:48.878Z,77.72
2024-02-08T04:09:58.016Z,78.15
2024-02-08T04:13:02.752Z,77.63
2024-02-08T04:16:07.298Z,77.99
2024-02-08T04:19:11.343Z,77.82
2024-02-08T04:22:15.250Z,78.03
2024-02-08T04:25:19.585Z,78.66
2024-02-08T04:28:26.667Z,78.41
2024-02-08T04:31:33.002Z,78.88
2024-02-08T04:34:37.019Z,78.44
2024-02-08T04:37:41.844Z,78.42
2024-02-08T04:40:45.726Z,77.88
2024-02-08T04:43:50.112Z,78.09
2024-02-08T04:46:54.208Z,77.64
2024-02-08T04:49:59.833Z,77.59
2024-02-08T04:53:04.068Z,78.01
2024-02-08T04:55:49.844Z,77.82
2024-02-08T04:59:05.524Z,77.92
2024-02-08T05:01:47.067Z,77.62
2024-02-08T05:04:41.771Z,77.76
2024-02-08T05:07:29.370Z,77.65
2024-02-08T05:10:16.690Z,77.53
2024-02-08T05:13:06.017Z,77.77
2024-02-08T05:15:53.198Z,77.66
2024-02-08T05:18:38.757Z,77.97
2024-02-08T05:21:24.641Z,77.78
2024-02-08T05:24:14.874Z,77.53
2024-02-08T05:27:00.870Z,77.92
2024-02-08T05:29:47.863Z,77.65
2024-02-08T05:32:37.779Z,77.51
2024-02-08T05:35:24.147Z,77.47
2024-02-08T05:38:10.046Z,77.78
2024-02-08T05:40:59.712Z,77.50
2024-02-08T05:43:47.450Z,77.72
2024-02-08T05:46:39.223Z,77.45
2024-02-08T05:49:27.572Z,77.13
2024-02-08T05:52:15.332Z,77.11
2024-02-08T05:55:04.747Z,77.27
2024-02-08T05:57:50.447Z,77.43
2024-02-08T06:00:47.376Z,77.17
2024-02-08T06:03:39.018Z,77.16
2024-02-08T06:06:34.728Z,77.34
2024-02-08T06:09:39.507Z,77.37
2024-02-08T06:13:05.894Z,77.31
2024-02-08T06:16:11.531Z,77.14
2024-02-08T06:19:17.797Z,77.25
2024-02-08T06:22:42.253Z,76.93
2024-02-08T06:25:47.710Z,76.73
2024-02-08T06:28:53.502Z,76.70
2024-02-08T06:31:59.194Z,76.81
2024-02-08T06:35:05.346Z,76.64
2024-02-08T06:38:20.297Z,76.66
2024-02-08T06:41:05.743Z,76.37
2024-02-08T06:44:01.045Z,76.54
2024-02-08T06:46:50.215Z,76.23
2024-02-08T06:49:54.504Z,76.68
2024-02-08T06:52:58.607Z,76.87
2024-02-08T06:56:03.904Z,76.71
2024-02-08T06:59:08.393Z,76.68
2024-02-08T07:02:14.274Z,76.83
2024-02-08T07:05:18.471Z,76.52
2024-02-08T07:08:27.622Z,76.23
2024-02-08T07:11:35.628Z,76.04
2024-02-08T07:14:39.802Z,76.48
2024-02-08T07:17:44.196Z,76.43
2024-02-08T07:20:48.380Z,76.45
2024-02-08T07:23:52.936Z,76.90
2024-02-08T07:26:57.182Z,76.85
2024-02-08T07:30:01.653Z,77.17
2024-02-08T07:33:06.872Z,76.82
2024-02-08T07:36:10.630Z,77.07
2024-02-08T07:39:15.025Z,77.23
2024-02-08T07:42:20.881Z,77.24
2024-02-08T07:45:26.716Z,77.52
2024-02-08T07:48:33.621Z,77.74
2024-02-08T07:51:39.265Z,78.07
2024-02-08T07:54:45.449Z,77.69
2024-02-08T07:57:32.894Z,78.04
2024-02-08T08:00:37.592Z,78.34
2024-02-08T08:03:46.013Z,78.72
2024-02-08T08:07:10.158Z,78.63
2024-02-08T08:10:21.990Z,78.50
2024-02-08T08:13:27.309Z,78.78
2024-02-08T08:16:31.967Z,79.01
2024-02-08T08:19:38.022Z,79.11
2024-02-08T08:22:26.689Z,79.03
2024-02-08T08:25:32.493Z,79.23
2024-02-08T08:28:30.489Z,78.85
2024-02-08T08:31:45.354Z,78.89
2024-02-08T08:34:37.324Z,79.21
2024-02-08T08:37:43.006Z,79.10
2024-02-08T08:40:41.422Z,79.00
2024-02-08T08:43:32.762Z,79.31
2024-02-08T08:46:21.151Z,79.35
2024-02-08T08:49:07.641Z,79.50
2024-02-08T08:52:00.286Z,79.75
2024-02-08T08:54:58.121Z,79.85
2024-02-08T08:57:45.425Z,80.07
2024-02-08T09:00:38.536Z,79.78
2024-02-08T09:03:27.661Z,79.54
2024-02-08T09:06:13.921Z,80.11
2024-02-08T09:09:00.424Z,79.33
2024-02-08T09:11:46.270Z,79.57
2024-02-08T09:14:33.567Z,79.48
2024-02-08T09:17:40.131Z,79.58
2024-02-08T09:20:37.301Z,78.80
2024-02-08T09:23:27.112Z,78.66
2024-02-08T09:26:13.170Z,78.58
2024-02-08T09:29:01.364Z,79.06
2024-02-08T09:31:47.891Z,79.11
2024-02-08T09:34:42.295Z,79.77
2024-02-08T09:37:30.717Z,79.59
2024-02-08T09:40:23.707Z,79.64
2024-02-08T09:43:19.431Z,79.82
2024-02-08T09:46:19.022Z,79.64
2024-02-08T09:49:20.312Z,78.97
2024-02-08T09:52:17.913Z,78.99
2024-02-08T09:55:19.990Z,79.08
2024-02-08T09:58:11.744Z,78.97
2024-02-08T10:00:59.480Z,78.65
2024-02-08T10:03:47.606Z,78.77
2024-02-08T10:06:43.200Z,78.96
2024-02-08T10:09:47.345Z,79.02
2024-02-08T10:12:54.398Z,78.84
2024-02-08T10:16:01.100Z,78.61
2024-02-08T10:19:15.834Z,78.04
2024-02-08T10:22:22.067Z,78.14
2024-02-08T10:25:28.238Z,78.37
2024-02-08T10:30:26.606Z,78.44
2024-02-08T10:33:38.513Z,78.10
2024-02-08T10:36:45.295Z,78.16
2024-02-08T10:39:51.434Z,78.21
2024-02-08T10:42:57.051Z,77.76
2024-02-08T10:46:02.993Z,77.59
2024-02-08T10:49:08.875Z,77.57
2024-02-08T10:52:15.737Z,77.77
2024-02-08T10:55:21.397Z,77.12
2024-02-08T10:58:10.997Z,77.40
2024-02-08T11:01:35.319Z,77.43
2024-02-08T11:04:50.298Z,77.41
2024-02-08T11:07:57.091Z,77.19
2024-02-08T11:11:06.511Z,77.59
2024-02-08T11:14:13.930Z,77.20
2024-02-08T11:17:20.757Z,76.78
2024-02-08T11:20:18.358Z,76.56
2024-02-08T11:23:24.399Z,75.99
2024-02-08T11:26:10.568Z,75.63
2024-02-08T11:29:26.929Z,75.62
2024-02-08T11:32:39.119Z,76.23
2024-02-08T11:35:50.337Z,75.19
2024-02-08T11:38:56.685Z,75.41
2024-02-08T11:42:02.276Z,75.30
2024-02-08T11:45:07.816Z,75.29
2024-02-08T11:48:13.369Z,75.25
2024-02-08T11:51:30.922Z,75.30
2024-02-08T11:54:49.089Z,75.37
2024-02-08T11:57:59.212Z,75.85
2024-02-08T12:00:50.453Z,75.92
2024-02-08T12:03:42.979Z,74.68
2024-02-08T12:06:31.164Z,74.28
2024-02-08T12:09:24.079Z,73.87
2024-02-08T12:12:30.026Z,74.09
2024-02-08T12:15:36.861Z,73.98
2024-02-08T12:18:44.406Z,73.70
2024-02-08T12:21:50.858Z,74.31
2024-02-08T12:24:58.226Z,72.92
2024-02-08T12:27:50.682Z,71.80
2024-02-08T12:30:40.980Z,71.80
2024-02-08T12:33:30.255Z,72.23
2024-02-08T12:36:21.024Z,72.72
2024-02-08T12:39:19.116Z,73.23
2024-02-08T12:42:06.366Z,73.59
2024-02-08T12:45:12.630Z,73.88
2024-02-08T12:47:59.132Z,74.42
2024-02-08T12:50:45.057Z,74.78
2024-02-08T12:53:34.488Z,75.28
2024-02-08T12:56:22.024Z,76.19
2024-02-08T12:59:27.603Z,76.17
2024-02-08T13:02:37.166Z,76.98
2024-02-08T13:05:30.341Z,77.22
2024-02-08T13:08:22.878Z,77.44
2024-02-08T13:11:08.775Z,78.32
2024-02-08T13:14:05.898Z,78.68
2024-02-08T13:16:54.673Z,78.95
2024-02-08T13:19:41.386Z,78.94
2024-02-08T13:22:32.539Z,79.35
2024-02-08T13:25:39.540Z,79.56
2024-02-08T13:28:46.381Z,79.81
2024-02-08T13:31:52.033Z,79.86
2024-02-08T13:34:41.900Z,80.05
2024-02-08T13:37:28.427Z,79.83
2024-02-08T13:40:15.005Z,79.63
2024-02-08T13:43:01.417Z,79.52
2024-02-08T13:45:51.645Z,79.63
2024-02-08T13:48:38.022Z,79.33
2024-02-08T13:51:24.217Z,79.45
2024-02-08T13:54:13.978Z,79.79
2024-02-08T13:56:59.563Z,79.62
2024-02-08T13:59:49.935Z,79.89
2024-02-08T14:02:37.800Z,80.10
2024-02-08T14:05:27.016Z,80.29
2024-02-08T14:08:19.143Z,80.42
2024-02-08T14:11:10.658Z,80.14
2024-02-08T14:13:58.181Z,81.01
2024-02-08T14:16:48.979Z,80.48
2024-02-08T14:19:38.325Z,80.17
2024-02-08T14:22:26.037Z,80.45
2024-02-08T14:25:24.820Z,80.60
2024-02-08T14:28:13.794Z,80.13
2024-02-08T14:31:03.031Z,80.54
2024-02-08T14:33:50.094Z,80.42
2024-02-08T14:36:35.494Z,81.20
2024-02-08T14:39:34.241Z,81.40
2024-02-08T14:42:26.437Z,81.34
2024-02-08T14:45:13.527Z,81.66
2024-02-08T14:48:01.765Z,81.84
2024-02-08T14:50:50.181Z,81.55
2024-02-08T14:53:41.799Z,81.83
2024-02-08T14:56:27.547Z,81.67
2024-02-08T14:59:15.141Z,81.31
2024-02-08T15:02:21.096Z,81.37
2024-02-08T15:05:27.123Z,80.74
2024-02-08T15:08:36.052Z,81.50
2024-02-08T15:11:48.069Z,81.08
2024-02-08T15:14:59.404Z,81.35
2024-02-08T15:18:04.918Z,81.15
2024-02-08T15:21:10.468Z,81.35
2024-02-08T15:24:09.372Z,81.14
2024-02-08T15:27:26.715Z,80.78
2024-02-08T15:30:32.778Z,81.19
2024-02-08T15:33:38.539Z,81.13
2024-02-08T15:36:51.573Z,81.04
2024-02-08T15:39:37.428Z,80.88
2024-02-08T15:42:52.774Z,81.31
2024-02-08T15:45:58.693Z,80.97
2024-02-08T15:49:04.790Z,80.56
2024-02-08T15:52:10.423Z,81.17
2024-02-08T15:55:00.368Z,80.96
2024-02-08T15:58:09.034Z,80.47
2024-02-08T16:01:23.676Z,80.76
2024-02-08T16:04:28.650Z,79.77
2024-02-08T16:07:20.339Z,80.30
2024-02-08T16:10:21.125Z,80.72
2024-02-08T16:13:27.390Z,80.39
2024-02-08T16:16:33.069Z,80.94
2024-02-08T16:19:42.026Z,81.05
2024-02-08T16:22:31.392Z,81.38
2024-02-08T16:25:38.377Z,81.46
2024-02-08T16:28:30.355Z,81.61
2024-02-08T16:31:19.393Z,81.67
2024-02-08T16:34:25.875Z,81.72
2024-02-08T16:37:31.640Z,81.84
2024-02-08T16:40:29.335Z,81.24
2024-02-08T16:43:35.241Z,81.54
2024-02-08T16:46:41.043Z,81.47
2024-02-08T16:49:47.113Z,81.39
2024-02-08T16:52:52.963Z,81.59
2024-02-08T16:55:58.812Z,81.47
2024-02-08T16:59:07.352Z,81.73
2024-02-08T17:02:25.528Z,82.13
2024-02-08T17:05:31.080Z,81.75
2024-02-08T17:08:39.670Z,81.70
2024-02-08T17:11:45.097Z,81.20
2024-02-08T17:15:00.314Z,81.19
2024-02-08T17:18:05.721Z,82.02
2024-02-08T17:21:15.358Z,81.80
2024-02-08T17:24:20.787Z,81.51
2024-02-08T17:27:26.202Z,82.22
2024-02-08T17:30:31.858Z,82.23
2024-02-08T17:33:37.791Z,82.45
2024-02-08T17:36:43.702Z,82.29
2024-02-08T17:39:58.706Z,82.18
2024-02-08T17:43:05.957Z,82.46
2024-02-08T17:46:13.004Z,82.51
2024-02-08T17:49:18.936Z,82.02
2024-02-08T17:52:25.816Z,82.04
2024-02-08T17:55:32.164Z,82.93
2024-02-08T17:58:41.825Z,83.17
2024-02-08T18:01:52.990Z,82.86
2024-02-08T18:04:59.651Z,82.04
2024-02-08T18:08:05.141Z,83.11
2024-02-08T18:11:14.110Z,82.88
2024-02-08T18:14:19.590Z,82.96
2024-02-08T18:17:25.923Z,83.36
2024-02-08T18:20:38.209Z,82.86
2024-02-08T18:23:44.002Z,83.30
2024-02-08T18:26:49.783Z,83.37
2024-02-08T18:29:55.425Z,82.79
2024-02-08T18:33:00.995Z,83.60
2024-02-08T18:36:06.900Z,83.13
2024-02-08T18:38:54.256Z,83.42
2024-02-08T18:42:00.416Z,83.39
2024-02-08T18:44:46.543Z,83.13
2024-02-08T18:47:35.406Z,84.23
2024-02-08T18:50:31.948Z,83.43
2024-02-08T18:53:41.775Z,83.73
2024-02-08T18:56:47.877Z,83.71
2024-02-08T18:59:34.566Z,83.46
2024-02-08T19:02:41.194Z,83.30
2024-02-08T19:05:51.114Z,83.59
2024-02-08T19:08:38.220Z,83.14
2024-02-08T19:11:26.010Z,83.29
2024-02-08T19:14:13.910Z,83.51
2024-02-08T19:17:03.141Z,83.58
2024-02-08T19:19:50.703Z,83.93
2024-02-08T19:22:41.929Z,83.39
2024-02-08T19:25:30.666Z,83.72
2024-02-08T19:28:23.363Z,84.06
2024-02-08T19:31:31.686Z,83.74
2024-02-08T19:34:40.603Z,84.12
2024-02-08T19:37:47.940Z,83.54
2024-02-08T19:40:53.980Z,83.84
2024-02-08T19:44:00.170Z,83.63
2024-02-08T19:47:09.549Z,83.93
2024-02-08T19:50:23.215Z,83.45
2024-02-08T19:53:09.704Z,84.54
2024-02-08T19:55:56.696Z,84.10
2024-02-08T19:58:44.444Z,83.85
2024-02-08T20:01:37.391Z,84.25
2024-02-08T20:04:29.286Z,84.59
2024-02-08T20:07:15.110Z,84.34
2024-02-08T20:10:21.336Z,84.65
2024-02-08T20:13:14.971Z,85.00
2024-02-08T20:16:01.367Z,84.16
2024-02-08T20:19:07.293Z,84.50
2024-02-08T20:22:13.682Z,84.68
2024-02-08T20:25:19.629Z,84.66
2024-02-08T20:28:07.748Z,83.97
2024-02-08T20:30:56.231Z,84.82
2024-02-08T20:34:02.069Z,83.91
2024-02-08T20:37:07.648Z,84.00
2024-02-08T20:40:13.695Z,83.91
2024-02-08T20:43:19.692Z,83.84
2024-02-08T20:46:06.669Z,83.98
2024-02-08T20:48:57.291Z,83.93
2024-02-08T20:52:04.103Z,84.37
2024-02-08T20:55:10.531Z,83.99
2024-02-08T20:58:16.654Z,83.77
2024-02-08T21:01:22.536Z,84.06
2024-02-08T21:04:28.706Z,84.01
2024-02-08T21:07:34.869Z,83.39
2024-02-08T21:10:43.847Z,84.21
2024-02-08T21:13:50.395Z,84.39
2024-02-08T21:16:41.318Z,84.10
2024-02-08T21:19:26.955Z,83.98
2024-02-08T21:22:32.808Z,84.19
2024-02-08T21:25:38.535Z,84.41
2024-02-08T21:28:44.555Z,84.46
2024-02-08T21:31:30.395Z,84.75
2024-02-08T21:34:16.328Z,84.69
2024-02-08T21:37:27.997Z,84.82
2024-02-08T21:40:34.407Z,84.99
2024-02-08T21:43:21.389Z,84.88
2024-02-08T21:46:27.091Z,84.72
2024-02-08T21:49:32.658Z,84.64
2024-02-08T21:52:34.157Z,84.82
2024-02-08T21:55:39.611Z,85.35
2024-02-08T21:58:45.657Z,84.96
2024-02-08T22:01:51.398Z,85.06
2024-02-08T22:04:58.267Z,85.39
2024-02-08T22:08:04.242Z,85.42
2024-02-08T22:11:13.356Z,85.46
2024-02-08T22:14:19.371Z,85.75
2024-02-08T22:17:25.064Z,85.70
2024-02-08T22:20:32.055Z,85.37
2024-02-08T22:23:38.005Z,85.19
2024-02-08T22:26:43.746Z,85.76
2024-02-08T22:29:49.479Z,85.63
2024-02-08T22:32:55.128Z,85.55
2024-02-08T22:36:01.036Z,85.71
2024-02-08T22:39:06.569Z,85.95
2024-02-08T22:42:12.816Z,85.58
2024-02-08T22:45:18.947Z,85.79
2024-02-08T22:48:25.288Z,86.24
2024-02-08T22:51:32.071Z,86.30
2024-02-08T22:54:37.804Z,86.21
2024-02-08T22:57:43.375Z,86.18
2024-02-08T23:00:29.296Z,86.42
2024-02-08T23:03:15.249Z,86.46
2024-02-08T23:06:21.158Z,86.18
2024-02-08T23:09:26.678Z,86.79
2024-02-08T23:12:32.412Z,86.40
2024-02-08T23:15:26.863Z,86.63
2024-02-08T23:18:16.735Z,86.40
2024-02-08T23:21:07.107Z,86.58
2024-02-08T23:23:53.354Z,86.64
2024-02-08T23:26:38.832Z,86.46
2024-02-08T23:29:25.996Z,86.88
2024-02-08T23:32:12.372Z,86.99
2024-02-08T23:34:58.960Z,87.00
2024-02-08T23:37:47.918Z,86.91
2024-02-08T23:54:43.409Z,86.93
2024-02-08T23:57:30.444Z,86.99
